Time,TemperatureF,DewpointF,PressureIn,WindDirection,WindDirectionDegrees,WindSpeedMPH,WindSpeedGustMPH,Humidity,HourlyPrecipIn,Conditions,Clouds,dailyrainin,SoftwareType,DateUTC
2013-06-03 00:05:00,69.8,64.7,29.70,SE,135,2.0,7.0,84,0.00,,,-99.99,Weather View 32 v60,2013-06-03 04:05:00,
2013-06-03 00:09:00,69.7,64.6,29.70,SSE,158,2.0,7.0,84,0.00,,,-99.99,Weather View 32 v60,2013-06-03 04:09:00,
2013-06-03 00:15:00,69.6,64.5,29.70,SE,135,3.0,7.0,84,0.00,,,-99.99,Weather View 32 v60,2013-06-03 04:15:00,
2013-06-03 00:23:00,69.4,64.3,29.71,ENE,68,2.0,7.0,84,0.00,,,-99.99,Weather View 32 v60,2013-06-03 04:23:00,
2013-06-03 00:25:00,69.4,64.3,29.71,South,180,3.0,7.0,84,0.00,,,-99.99,Weather View 32 v60,2013-06-03 04:25:00,
2013-06-03 00:29:00,69.3,64.6,29.71,ESE,113,1.0,7.0,85,0.00,,,-99.99,Weather View 32 v60,2013-06-03 04:29:00,
2013-06-03 00:35:00,69.1,64.4,29.70,SSE,158,2.0,7.0,85,0.00,,,-99.99,Weather View 32 v60,2013-06-03 04:35:00,
2013-06-03 00:45:00,68.9,64.2,29.71,South,180,1.0,7.0,85,0.00,,,-99.99,Weather View 32 v60,2013-06-03 04:45:00,
2013-06-03 00:55:00,68.6,64.2,29.71,SSE,158,0.0,6.0,86,0.00,,,-99.99,Weather View 32 v60,2013-06-03 04:55:00,
2013-06-03 01:00:00,68.6,64.2,29.71,ESE,113,0.0,6.0,86,0.00,,,-99.99,Weather View 32 v60,2013-06-03 05:00:00,
2013-06-03 01:10:00,68.4,64.4,29.71,NE,45,0.0,6.0,87,0.00,,,-99.99,Weather View 32 v60,2013-06-03 05:10:00,
2013-06-03 01:15:00,68.3,64.3,29.70,NE,45,0.0,6.0,87,0.00,,,-99.99,Weather View 32 v60,2013-06-03 05:15:00,
2013-06-03 01:24:00,68.2,64.2,29.70,SSE,158,3.0,6.0,87,0.00,,,-99.99,Weather View 32 v60,2013-06-03 05:24:00,
2013-06-03 01:30:00,68.1,64.4,29.71,South,180,0.0,6.0,88,0.00,,,-99.99,Weather View 32 v60,2013-06-03 05:30:00,
2013-06-03 01:35:00,68.1,64.4,29.70,SE,135,0.0,5.0,88,0.00,,,-99.99,Weather View 32 v60,2013-06-03 05:35:00,
2013-06-03 01:45:00,68.0,64.3,29.70,SE,135,1.0,6.0,88,0.00,,,-99.99,Weather View 32 v60,2013-06-03 05:45:00,
2013-06-03 01:55:00,68.0,64.3,29.71,SSE,158,0.0,6.0,88,0.00,,,-99.99,Weather View 32 v60,2013-06-03 05:55:00,
2013-06-03 02:04:00,67.9,64.2,29.71,South,180,2.0,6.0,88,0.00,,,-99.99,Weather View 32 v60,2013-06-03 06:04:00,
2013-06-03 02:10:00,67.9,64.2,29.71,South,180,2.0,6.0,88,0.00,,,-99.99,Weather View 32 v60,2013-06-03 06:10:00,
2013-06-03 02:20:00,67.8,64.1,29.70,South,180,0.0,6.0,88,0.00,,,-99.99,Weather View 32 v60,2013-06-03 06:20:00,
2013-06-03 02:25:00,67.7,64.0,29.70,SE,135,0.0,6.0,88,0.00,,,-99.99,Weather View 32 v60,2013-06-03 06:25:00,
2013-06-03 02:35:00,67.6,64.2,29.70,ESE,113,0.0,6.0,89,0.00,,,-99.99,Weather View 32 v60,2013-06-03 06:35:00,
2013-06-03 02:40:00,67.5,64.1,29.70,ESE,113,0.0,6.0,89,0.00,,,-99.99,Weather View 32 v60,2013-06-03 06:40:00,
2013-06-03 02:50:00,67.4,64.0,29.70,ESE,113,0.0,5.0,89,0.00,,,-99.99,Weather View 32 v60,2013-06-03 06:50:00,
2013-06-03 03:00:00,67.3,63.9,29.69,ESE,113,1.0,4.0,89,0.00,,,-99.99,Weather View 32 v60,2013-06-03 07:00:00,
2013-06-03 03:10:00,67.2,63.8,29.69,SE,135,0.0,4.0,89,0.00,,,-99.99,Weather View 32 v60,2013-06-03 07:10:00,
2013-06-03 03:20:00,67.2,64.2,29.69,South,180,1.0,4.0,90,0.00,,,-99.99,Weather View 32 v60,2013-06-03 07:20:00,
2013-06-03 03:25:00,67.2,64.2,29.69,South,180,0.0,4.0,90,0.00,,,-99.99,Weather View 32 v60,2013-06-03 07:25:00,
2013-06-03 03:34:00,67.2,64.2,29.69,SE,135,0.0,4.0,90,0.00,,,-99.99,Weather View 32 v60,2013-06-03 07:34:00,
2013-06-03 03:40:00,67.2,64.2,29.68,South,180,1.0,4.0,90,0.00,,,-99.99,Weather View 32 v60,2013-06-03 07:40:00,
2013-06-03 03:50:00,67.2,64.2,29.68,South,180,2.0,4.0,90,0.00,,,-99.99,Weather View 32 v60,2013-06-03 07:50:00,
2013-06-03 04:00:00,67.1,64.1,29.68,South,180,1.0,4.0,90,0.00,,,-99.99,Weather View 32 v60,2013-06-03 08:00:00,
2013-06-03 04:09:00,67.0,64.0,29.68,SSE,158,0.0,4.0,90,0.00,,,-99.99,Weather View 32 v60,2013-06-03 08:09:00,
2013-06-03 04:15:00,66.9,63.9,29.69,South,180,2.0,4.0,90,0.00,,,-99.99,Weather View 32 v60,2013-06-03 08:15:00,
2013-06-03 04:25:00,66.9,64.2,29.69,South,180,1.0,4.0,91,0.00,,,-99.99,Weather View 32 v60,2013-06-03 08:25:00,
2013-06-03 04:35:00,66.9,64.2,29.69,South,180,2.0,6.0,91,0.00,,,-99.99,Weather View 32 v60,2013-06-03 08:35:00,
2013-06-03 04:45:00,66.9,64.2,29.69,SSE,158,0.0,6.0,91,0.00,,,-99.99,Weather View 32 v60,2013-06-03 08:45:00,
2013-06-03 04:55:00,67.0,64.6,29.70,South,180,2.0,6.0,92,0.00,,,-99.99,Weather View 32 v60,2013-06-03 08:55:00,
2013-06-03 05:00:00,67.1,64.7,29.70,South,180,0.0,6.0,92,0.00,,,-99.99,Weather View 32 v60,2013-06-03 09:00:00,
2013-06-03 05:10:00,67.2,64.8,29.70,South,180,2.0,6.0,92,0.00,,,-99.99,Weather View 32 v60,2013-06-03 09:10:00,
2013-06-03 05:20:00,67.2,64.8,29.70,South,180,2.0,6.0,92,0.00,,,-99.99,Weather View 32 v60,2013-06-03 09:20:00,
2013-06-03 05:26:00,67.3,64.9,29.71,South,180,3.0,6.0,92,0.00,,,-99.99,Weather View 32 v60,2013-06-03 09:26:00,
2013-06-03 05:35:00,67.2,64.8,29.71,South,180,3.0,7.0,92,0.00,,,-99.99,Weather View 32 v60,2013-06-03 09:35:00,
2013-06-03 05:45:00,67.3,64.9,29.71,South,180,2.0,7.0,92,0.00,,,-99.99,Weather View 32 v60,2013-06-03 09:45:00,
2013-06-03 05:54:00,67.3,64.9,29.72,South,180,1.0,7.0,92,0.00,,,-99.99,Weather View 32 v60,2013-06-03 09:54:00,
2013-06-03 06:00:00,67.3,64.9,29.73,SE,135,3.0,7.0,92,0.00,,,-99.99,Weather View 32 v60,2013-06-03 10:00:00,
2013-06-03 06:10:00,67.3,65.2,29.73,South,180,0.0,7.0,93,0.00,,,-99.99,Weather View 32 v60,2013-06-03 10:10:00,
2013-06-03 06:19:00,67.1,65.0,29.74,SSE,158,1.0,8.0,93,0.01,,,-99.99,Weather View 32 v60,2013-06-03 10:19:00,
2013-06-03 06:25:00,67.0,64.9,29.75,South,180,2.0,8.0,93,0.01,,,-99.99,Weather View 32 v60,2013-06-03 10:25:00,
2013-06-03 06:35:00,66.8,65.0,29.75,South,180,1.0,8.0,94,0.02,,,-99.99,Weather View 32 v60,2013-06-03 10:35:00,
2013-06-03 06:40:00,66.7,64.9,29.75,ENE,68,4.0,8.0,94,0.02,,,-99.99,Weather View 32 v60,2013-06-03 10:40:00,
2013-06-03 06:49:00,66.5,65.0,29.75,South,180,0.0,8.0,95,0.03,,,-99.99,Weather View 32 v60,2013-06-03 10:49:00,
2013-06-03 06:55:00,66.5,65.0,29.76,SE,135,2.0,8.0,95,0.03,,,-99.99,Weather View 32 v60,2013-06-03 10:55:00,
2013-06-03 07:04:00,66.3,64.8,29.76,ESE,113,2.0,8.0,95,0.04,,,-99.99,Weather View 32 v60,2013-06-03 11:04:00,
2013-06-03 07:10:00,66.1,64.9,29.76,South,180,0.0,8.0,96,0.05,,,-99.99,Weather View 32 v60,2013-06-03 11:10:00,
2013-06-03 07:19:00,65.9,64.7,29.76,SSE,158,0.0,7.0,96,0.05,,,-99.99,Weather View 32 v60,2013-06-03 11:19:00,
2013-06-03 07:25:00,65.9,64.7,29.76,SSE,158,0.0,7.0,96,0.05,,,-99.99,Weather View 32 v60,2013-06-03 11:25:00,
2013-06-03 07:30:00,65.9,64.7,29.75,SSE,158,0.0,7.0,96,0.06,,,-99.99,Weather View 32 v60,2013-06-03 11:30:00,
2013-06-03 07:39:00,65.8,64.6,29.76,South,180,1.0,7.0,96,0.06,,,-99.99,Weather View 32 v60,2013-06-03 11:39:00,
2013-06-03 07:45:00,65.7,64.5,29.76,SSE,158,0.0,7.0,96,0.06,,,-99.99,Weather View 32 v60,2013-06-03 11:45:00,
2013-06-03 07:54:00,65.6,64.4,29.76,South,180,1.0,5.0,96,0.07,,,-99.99,Weather View 32 v60,2013-06-03 11:54:00,
2013-06-03 08:00:00,65.6,64.4,29.76,South,180,0.0,4.0,96,0.06,,,-99.99,Weather View 32 v60,2013-06-03 12:00:00,
2013-06-03 08:10:00,65.4,64.2,29.75,South,180,0.0,3.0,96,0.06,,,-99.99,Weather View 32 v60,2013-06-03 12:10:00,
2013-06-03 08:20:00,65.3,64.1,29.75,South,180,0.0,3.0,96,0.06,,,-99.99,Weather View 32 v60,2013-06-03 12:20:00,
2013-06-03 08:25:00,65.4,64.2,29.75,South,180,0.0,3.0,96,0.07,,,-99.99,Weather View 32 v60,2013-06-03 12:25:00,
2013-06-03 08:35:00,65.5,64.6,29.74,South,180,0.0,2.0,97,0.07,,,-99.99,Weather View 32 v60,2013-06-03 12:35:00,
2013-06-03 08:45:00,65.8,64.9,29.75,South,180,1.0,3.0,97,0.06,,,-99.99,Weather View 32 v60,2013-06-03 12:45:00,
2013-06-03 08:54:00,66.0,65.1,29.75,SSE,158,2.0,3.0,97,0.05,,,-99.99,Weather View 32 v60,2013-06-03 12:54:00,
2013-06-03 09:00:00,66.0,64.8,29.76,SSE,158,1.0,3.0,96,0.06,,,-99.99,Weather View 32 v60,2013-06-03 13:00:00,
2013-06-03 09:09:00,65.8,64.6,29.75,SSE,158,0.0,3.0,96,0.06,,,-99.99,Weather View 32 v60,2013-06-03 13:09:00,
2013-06-03 09:15:00,65.8,64.6,29.75,SSE,158,1.0,3.0,96,0.05,,,-99.99,Weather View 32 v60,2013-06-03 13:15:00,
2013-06-03 09:25:00,65.7,64.5,29.75,SSE,158,0.0,3.0,96,0.05,,,-99.99,Weather View 32 v60,2013-06-03 13:25:00,
2013-06-03 09:35:00,65.8,64.9,29.76,South,180,1.0,3.0,97,0.05,,,-99.99,Weather View 32 v60,2013-06-03 13:35:00,
2013-06-03 09:40:00,65.8,64.9,29.76,South,180,0.0,3.0,97,0.05,,,-99.99,Weather View 32 v60,2013-06-03 13:40:00,
2013-06-03 09:49:00,65.8,64.6,29.76,South,180,0.0,3.0,96,0.05,,,-99.99,Weather View 32 v60,2013-06-03 13:49:00,
2013-06-03 09:55:00,65.8,64.6,29.76,South,180,0.0,3.0,96,0.06,,,-99.99,Weather View 32 v60,2013-06-03 13:55:00,
2013-06-03 10:00:00,65.8,64.9,29.76,South,180,1.0,3.0,97,0.05,,,-99.99,Weather View 32 v60,2013-06-03 14:00:00,
2013-06-03 10:09:00,65.8,64.9,29.76,South,180,1.0,3.0,97,0.05,,,-99.99,Weather View 32 v60,2013-06-03 14:09:00,
2013-06-03 10:15:00,65.8,64.9,29.76,South,180,0.0,3.0,97,0.05,,,-99.99,Weather View 32 v60,2013-06-03 14:15:00,
2013-06-03 10:25:00,65.6,64.4,29.76,South,180,2.0,3.0,96,0.05,,,-99.99,Weather View 32 v60,2013-06-03 14:25:00,
2013-06-03 10:35:00,65.5,64.6,29.76,ESE,113,0.0,3.0,97,0.05,,,-99.99,Weather View 32 v60,2013-06-03 14:35:00,
2013-06-03 10:40:00,65.5,64.6,29.76,East,90,0.0,3.0,97,0.06,,,-99.99,Weather View 32 v60,2013-06-03 14:40:00,
2013-06-03 10:49:00,65.4,64.5,29.76,SE,135,1.0,3.0,97,0.06,,,-99.99,Weather View 32 v60,2013-06-03 14:49:00,
2013-06-03 10:55:00,65.3,64.4,29.75,SSE,158,1.0,4.0,97,0.05,,,-99.99,Weather View 32 v60,2013-06-03 14:55:00,
2013-06-03 11:00:00,65.4,64.5,29.75,SSE,158,0.0,4.0,97,0.06,,,-99.99,Weather View 32 v60,2013-06-03 15:00:00,
2013-06-03 11:10:00,65.4,64.5,29.75,SSE,158,0.0,4.0,97,0.06,,,-99.99,Weather View 32 v60,2013-06-03 15:10:00,
2013-06-03 11:15:00,65.4,64.5,29.75,SSE,158,2.0,4.0,97,0.06,,,-99.99,Weather View 32 v60,2013-06-03 15:15:00,
2013-06-03 11:24:00,65.3,64.4,29.75,South,180,1.0,4.0,97,0.06,,,-99.99,Weather View 32 v60,2013-06-03 15:24:00,
2013-06-03 11:30:00,65.4,64.5,29.75,South,180,2.0,4.0,97,0.06,,,-99.99,Weather View 32 v60,2013-06-03 15:30:00,
2013-06-03 11:35:00,65.4,64.5,29.74,South,180,0.0,4.0,97,0.06,,,-99.99,Weather View 32 v60,2013-06-03 15:35:00,
2013-06-03 11:45:00,65.6,65.0,29.74,South,180,2.0,4.0,98,0.06,,,-99.99,Weather View 32 v60,2013-06-03 15:45:00,
2013-06-03 11:55:00,65.8,64.9,29.74,SSE,158,0.0,4.0,97,0.06,,,-99.99,Weather View 32 v60,2013-06-03 15:55:00,
2013-06-03 12:00:00,65.8,64.9,29.74,South,180,0.0,4.0,97,0.05,,,-99.99,Weather View 32 v60,2013-06-03 16:00:00,
2013-06-03 12:05:00,65.8,64.9,29.74,South,180,0.0,4.0,97,0.06,,,-99.99,Weather View 32 v60,2013-06-03 16:05:00,
2013-06-03 12:15:00,66.4,65.5,29.73,SSE,158,1.0,4.0,97,0.06,,,-99.99,Weather View 32 v60,2013-06-03 16:15:00,
2013-06-03 12:25:00,67.0,66.1,29.74,South,180,0.0,4.0,97,0.05,,,-99.99,Weather View 32 v60,2013-06-03 16:25:00,
2013-06-03 12:30:00,67.1,65.9,29.74,SSE,158,2.0,4.0,96,0.05,,,-99.99,Weather View 32 v60,2013-06-03 16:30:00,
2013-06-03 12:40:00,67.2,66.0,29.74,SE,135,0.0,5.0,96,0.06,,,-99.99,Weather View 32 v60,2013-06-03 16:40:00,
2013-06-03 12:50:00,67.4,66.2,29.74,South,180,2.0,5.0,96,0.05,,,-99.99,Weather View 32 v60,2013-06-03 16:50:00,
2013-06-03 13:00:00,67.6,66.1,29.74,South,180,2.0,5.0,95,0.05,,,-99.99,Weather View 32 v60,2013-06-03 17:00:00,
2013-06-03 13:05:00,67.8,66.3,29.74,ESE,113,2.0,6.0,95,0.05,,,-99.99,Weather View 32 v60,2013-06-03 17:05:00,
2013-06-03 13:10:00,67.9,66.4,29.73,SE,135,2.0,6.0,95,0.05,,,-99.99,Weather View 32 v60,2013-06-03 17:10:00,
2013-06-03 13:19:00,68.0,66.2,29.73,SSE,158,1.0,6.0,94,0.04,,,-99.99,Weather View 32 v60,2013-06-03 17:19:00,
2013-06-03 13:25:00,68.3,66.5,29.72,South,180,1.0,6.0,94,0.05,,,-99.99,Weather View 32 v60,2013-06-03 17:25:00,
2013-06-03 13:35:00,68.9,67.1,29.72,SSE,158,1.0,6.0,94,0.04,,,-99.99,Weather View 32 v60,2013-06-03 17:35:00,
2013-06-03 13:40:00,69.6,67.8,29.71,South,180,1.0,6.0,94,0.04,,,-99.99,Weather View 32 v60,2013-06-03 17:40:00,
2013-06-03 13:45:00,70.1,68.0,29.71,South,180,2.0,6.0,93,0.04,,,-99.99,Weather View 32 v60,2013-06-03 17:45:00,
2013-06-03 13:55:00,71.2,68.7,29.71,South,180,3.0,8.0,92,0.04,,,-99.99,Weather View 32 v60,2013-06-03 17:55:00,
2013-06-03 14:00:00,71.8,69.0,29.71,South,180,3.0,8.0,91,0.04,,,-99.99,Weather View 32 v60,2013-06-03 18:00:00,
2013-06-03 14:10:00,72.7,69.3,29.71,South,180,1.0,8.0,89,0.03,,,-99.99,Weather View 32 v60,2013-06-03 18:10:00,
2013-06-03 14:20:00,72.8,68.7,29.70,South,180,2.0,8.0,87,0.04,,,-99.99,Weather View 32 v60,2013-06-03 18:20:00,
2013-06-03 14:30:00,73.4,68.6,29.70,SE,135,2.0,8.0,85,0.03,,,-99.99,Weather View 32 v60,2013-06-03 18:30:00,
2013-06-03 14:35:00,73.8,69.0,29.70,South,180,3.0,8.0,85,0.04,,,-99.99,Weather View 32 v60,2013-06-03 18:35:00,
2013-06-03 14:45:00,74.5,69.0,29.70,South,180,4.0,8.0,83,0.03,,,-99.99,Weather View 32 v60,2013-06-03 18:45:00,
2013-06-03 14:55:00,74.8,68.6,29.69,South,180,6.0,10.0,81,0.03,,,-99.99,Weather View 32 v60,2013-06-03 18:55:00,
2013-06-03 15:00:00,75.3,69.4,29.69,SSE,158,2.0,10.0,82,0.03,,,-99.99,Weather View 32 v60,2013-06-03 19:00:00,
2013-06-03 15:10:00,75.7,68.7,29.69,ENE,68,2.0,10.0,79,0.03,,,-99.99,Weather View 32 v60,2013-06-03 19:10:00,
2013-06-03 15:15:00,76.0,69.4,29.69,South,180,4.0,10.0,80,0.03,,,-99.99,Weather View 32 v60,2013-06-03 19:15:00,
2013-06-03 15:25:00,76.3,68.5,29.69,South,180,4.0,10.0,77,0.03,,,-99.99,Weather View 32 v60,2013-06-03 19:25:00,
2013-06-03 15:32:00,76.3,68.1,29.69,South,180,4.0,10.0,76,0.04,,,-99.99,Weather View 32 v60,2013-06-03 19:32:00,
2013-06-03 15:40:00,76.0,67.9,29.69,South,180,2.0,10.0,76,0.03,,,-99.99,Weather View 32 v60,2013-06-03 19:40:00,
2013-06-03 15:45:00,76.0,67.9,29.68,SSE,158,2.0,10.0,76,0.04,,,-99.99,Weather View 32 v60,2013-06-03 19:45:00,
2013-06-03 15:54:00,76.0,67.9,29.68,South,180,3.0,10.0,76,0.04,,,-99.99,Weather View 32 v60,2013-06-03 19:54:00,
2013-06-03 16:00:00,76.1,67.6,29.68,NNE,23,2.0,11.0,75,0.04,,,-99.99,Weather View 32 v60,2013-06-03 20:00:00,
2013-06-03 16:04:00,76.1,67.6,29.68,South,180,6.0,11.0,75,0.04,,,-99.99,Weather View 32 v60,2013-06-03 20:04:00,
2013-06-03 16:10:00,76.2,67.7,29.68,South,180,2.0,11.0,75,0.05,,,-99.99,Weather View 32 v60,2013-06-03 20:10:00,
2013-06-03 16:19:00,76.3,67.8,29.67,South,180,4.0,11.0,75,0.04,,,-99.99,Weather View 32 v60,2013-06-03 20:19:00,
2013-06-03 16:25:00,76.3,67.4,29.67,South,180,1.0,11.0,74,0.04,,,-99.99,Weather View 32 v60,2013-06-03 20:25:00,
2013-06-03 16:30:00,76.3,67.0,29.67,ENE,68,3.0,11.0,73,0.03,,,-99.99,Weather View 32 v60,2013-06-03 20:30:00,
2013-06-03 16:35:00,76.3,67.0,29.66,South,180,5.0,11.0,73,0.03,,,-99.99,Weather View 32 v60,2013-06-03 20:35:00,
2013-06-03 16:45:00,76.4,67.1,29.66,SSE,158,5.0,12.0,73,0.02,,,-99.99,Weather View 32 v60,2013-06-03 20:45:00,
2013-06-03 16:55:00,76.0,66.3,29.67,South,180,4.0,12.0,72,0.01,,,-99.99,Weather View 32 v60,2013-06-03 20:55:00,
2013-06-03 17:04:00,75.7,66.8,29.67,South,180,3.0,12.0,74,0.01,,,-99.99,Weather View 32 v60,2013-06-03 21:04:00,
2013-06-03 17:10:00,75.6,66.7,29.67,South,180,3.0,12.0,74,0.00,,,-99.99,Weather View 32 v60,2013-06-03 21:10:00,
2013-06-03 17:19:00,75.4,66.5,29.66,South,180,3.0,12.0,74,0.00,,,-99.99,Weather View 32 v60,2013-06-03 21:19:00,
2013-06-03 17:25:00,75.4,66.5,29.66,SSE,158,0.0,12.0,74,0.00,,,-99.99,Weather View 32 v60,2013-06-03 21:25:00,
2013-06-03 17:30:00,75.3,65.6,29.66,SSE,158,2.0,12.0,72,0.00,,,-99.99,Weather View 32 v60,2013-06-03 21:30:00,
2013-06-03 17:40:00,75.3,66.0,29.66,East,90,2.0,12.0,73,0.00,,,-99.99,Weather View 32 v60,2013-06-03 21:40:00,
2013-06-03 17:49:00,75.3,64.4,29.66,SE,135,1.0,9.0,69,0.00,,,-99.99,Weather View 32 v60,2013-06-03 21:49:00,
2013-06-03 17:55:00,75.1,63.8,29.66,SE,135,2.0,9.0,68,0.00,,,-99.99,Weather View 32 v60,2013-06-03 21:55:00,
2013-06-03 18:00:00,75.0,63.3,29.65,South,180,1.0,9.0,67,0.01,,,-99.99,Weather View 32 v60,2013-06-03 22:00:00,
2013-06-03 18:05:00,75.0,62.8,29.65,ESE,113,1.0,9.0,66,0.01,,,-99.99,Weather View 32 v60,2013-06-03 22:05:00,
2013-06-03 18:15:00,74.8,63.1,29.65,ESE,113,5.0,9.0,67,0.01,,,-99.99,Weather View 32 v60,2013-06-03 22:15:00,
2013-06-03 18:25:00,74.6,62.4,29.65,SE,135,3.0,9.0,66,0.01,,,-99.99,Weather View 32 v60,2013-06-03 22:25:00,
2013-06-03 18:33:00,74.5,61.9,29.65,South,180,11.0,11.0,65,0.01,,,-99.99,Weather View 32 v60,2013-06-03 22:33:00,
2013-06-03 18:39:00,74.3,61.7,29.66,South,180,2.0,11.0,65,0.01,,,-99.99,Weather View 32 v60,2013-06-03 22:39:00,
2013-06-03 18:45:00,74.1,61.1,29.66,East,90,5.0,11.0,64,0.01,,,-99.99,Weather View 32 v60,2013-06-03 22:45:00,
2013-06-03 18:55:00,74.0,60.6,29.66,South,180,5.0,11.0,63,0.01,,,-99.99,Weather View 32 v60,2013-06-03 22:55:00,
2013-06-03 19:05:00,73.7,60.3,29.66,ESE,113,3.0,11.0,63,0.00,,,-99.99,Weather View 32 v60,2013-06-03 23:05:00,
2013-06-03 19:15:00,73.3,60.8,29.67,South,180,1.0,11.0,65,0.00,,,-99.99,Weather View 32 v60,2013-06-03 23:15:00,
2013-06-03 19:25:00,72.9,60.8,29.67,ESE,113,3.0,11.0,66,0.00,,,-99.99,Weather View 32 v60,2013-06-03 23:25:00,
2013-06-03 19:30:00,72.7,61.1,29.67,East,90,3.0,11.0,67,0.00,,,-99.99,Weather View 32 v60,2013-06-03 23:30:00,
2013-06-03 19:35:00,72.4,61.2,29.67,NE,45,6.0,8.0,68,0.00,,,-99.99,Weather View 32 v60,2013-06-03 23:35:00,
2013-06-03 19:40:00,72.2,61.4,29.67,ESE,113,2.0,8.0,69,0.00,,,-99.99,Weather View 32 v60,2013-06-03 23:40:00,
2013-06-03 19:49:00,71.7,61.0,29.68,South,180,1.0,8.0,69,0.00,,,-99.99,Weather View 32 v60,2013-06-03 23:49:00,
2013-06-03 19:55:00,71.4,60.7,29.68,South,180,2.0,8.0,69,0.00,,,-99.99,Weather View 32 v60,2013-06-03 23:55:00,
2013-06-03 20:00:00,71.2,60.5,29.68,SSE,158,1.0,7.0,69,0.00,,,-99.99,Weather View 32 v60,2013-06-04 00:00:00,
2013-06-03 20:10:00,70.7,60.4,29.69,East,90,1.0,7.0,70,0.00,,,-99.99,Weather View 32 v60,2013-06-04 00:10:00,
2013-06-03 20:19:00,70.0,58.9,29.69,SE,135,2.0,9.0,68,0.00,,,-99.99,Weather View 32 v60,2013-06-04 00:19:00,
2013-06-03 20:25:00,69.7,58.6,29.69,ENE,68,3.0,9.0,68,0.00,,,-99.99,Weather View 32 v60,2013-06-04 00:25:00,
2013-06-03 20:30:00,69.3,57.8,29.69,East,90,1.0,9.0,67,0.00,,,-99.99,Weather View 32 v60,2013-06-04 00:30:00,
2013-06-03 20:35:00,69.0,58.0,29.70,ENE,68,3.0,9.0,68,0.00,,,-99.99,Weather View 32 v60,2013-06-04 00:35:00,
2013-06-03 20:45:00,68.2,56.8,29.70,NNE,23,1.0,9.0,67,0.00,,,-99.99,Weather View 32 v60,2013-06-04 00:45:00,
2013-06-03 20:55:00,67.6,55.0,29.70,East,90,5.0,13.0,64,0.00,,,-99.99,Weather View 32 v60,2013-06-04 00:55:00,
2013-06-03 21:04:00,67.0,54.4,29.71,NNE,23,4.0,13.0,64,0.00,,,-99.99,Weather View 32 v60,2013-06-04 01:04:00,
2013-06-03 21:10:00,66.7,54.5,29.71,East,90,3.0,13.0,65,0.00,,,-99.99,Weather View 32 v60,2013-06-04 01:10:00,
2013-06-03 21:15:00,66.4,53.8,29.71,East,90,3.0,13.0,64,0.00,,,-99.99,Weather View 32 v60,2013-06-04 01:15:00,
2013-06-03 21:24:00,65.9,52.9,29.71,ESE,113,3.0,13.0,63,0.00,,,-99.99,Weather View 32 v60,2013-06-04 01:24:00,
2013-06-03 21:30:00,65.6,53.5,29.72,East,90,1.0,13.0,65,0.00,,,-99.99,Weather View 32 v60,2013-06-04 01:30:00,
2013-06-03 21:35:00,65.4,52.9,29.72,East,90,1.0,13.0,64,0.00,,,-99.99,Weather View 32 v60,2013-06-04 01:35:00,
2013-06-03 21:45:00,64.9,51.5,29.73,ESE,113,3.0,13.0,62,0.00,,,-99.99,Weather View 32 v60,2013-06-04 01:45:00,
2013-06-03 21:55:00,64.5,51.2,29.73,South,180,1.0,10.0,62,0.00,,,-99.99,Weather View 32 v60,2013-06-04 01:55:00,
2013-06-03 22:00:00,64.3,51.0,29.73,East,90,1.0,10.0,62,0.00,,,-99.99,Weather View 32 v60,2013-06-04 02:00:00,
2013-06-03 22:10:00,63.8,51.4,29.73,East,90,0.0,10.0,64,0.00,,,-99.99,Weather View 32 v60,2013-06-04 02:10:00,
2013-06-03 22:19:00,63.3,51.3,29.74,East,90,0.0,10.0,65,0.00,,,-99.99,Weather View 32 v60,2013-06-04 02:19:00,
2013-06-03 22:25:00,63.0,51.4,29.74,ENE,68,3.0,10.0,66,0.00,,,-99.99,Weather View 32 v60,2013-06-04 02:25:00,
2013-06-03 22:30:00,62.7,51.6,29.73,East,90,1.0,10.0,67,0.00,,,-99.99,Weather View 32 v60,2013-06-04 02:30:00,
2013-06-03 22:40:00,62.2,50.3,29.74,ENE,68,2.0,10.0,65,0.00,,,-99.99,Weather View 32 v60,2013-06-04 02:40:00,
2013-06-03 22:45:00,62.0,50.1,29.74,ENE,68,1.0,7.0,65,0.00,,,-99.99,Weather View 32 v60,2013-06-04 02:45:00,
2013-06-03 22:55:00,61.5,50.0,29.74,ENE,68,2.0,6.0,66,0.00,,,-99.99,Weather View 32 v60,2013-06-04 02:55:00,
2013-06-03 23:00:00,61.3,50.2,29.74,East,90,1.0,6.0,67,0.00,,,-99.99,Weather View 32 v60,2013-06-04 03:00:00,
2013-06-03 23:05:00,61.1,50.0,29.74,NNE,23,1.0,6.0,67,0.00,,,-99.99,Weather View 32 v60,2013-06-04 03:05:00,
2013-06-03 23:10:00,60.9,49.8,29.74,SSE,158,1.0,6.0,67,0.00,,,-99.99,Weather View 32 v60,2013-06-04 03:10:00,
2013-06-03 23:19:00,60.4,49.0,29.74,ENE,68,3.0,6.0,66,0.00,,,-99.99,Weather View 32 v60,2013-06-04 03:19:00,
2013-06-03 23:25:00,60.3,48.5,29.74,East,90,2.0,6.0,65,0.00,,,-99.99,Weather View 32 v60,2013-06-04 03:25:00,
2013-06-03 23:35:00,59.9,48.9,29.74,SE,135,2.0,6.0,67,0.00,,,-99.99,Weather View 32 v60,2013-06-04 03:35:00,
2013-06-03 23:40:00,59.8,48.4,29.74,ENE,68,5.0,9.0,66,0.00,,,-99.99,Weather View 32 v60,2013-06-04 03:40:00,
2013-06-03 23:45:00,59.6,48.6,29.74,ENE,68,3.0,9.0,67,0.00,,,-99.99,Weather View 32 v60,2013-06-04 03:45:00,
2013-06-03 23:55:00,59.4,48.4,29.75,East,90,2.0,9.0,67,0.00,,,-99.99,Weather View 32 v60,2013-06-04 03:55:00,